KFFT

Capital City Airport

Frankfort, Kentucky, USA
METAR KFFT 250053Z AUTO 00000KT 10SM CLR 22/14 A3007 RMK AO2 SLP176 T02220144
Observed Flight Rules
May-25 @ 00:53 UTC (23 minutes ago) Visual Flight Rules
Visibility Clouds
10 miles
  • Clear skies
Temperatures Readings
Current 22°C / 72°F
Dewpoint 14°C / 57°F
Humidity 61%
Altimeter 30.07" Hg
Pressure 1017.6 hPa
Elevation 236
METAR KFFT 250053Z AUTO 00000KT 10SM CLR 22/14 A3007 RMK AO2 SLP176 T02220144
Observed Flight Rules
May-25 @ 00:53 UTC
(23 minutes ago)
VFR
Clouds
  • Clear skies
Temperature Dewpoint
22°C / 72°F 14°C / 57°F
Humidity Altimeter Pressure
61% 30.07" Hg 1017.6 hPa